Time;durP1;ratioP1;P1;durP2;ratioP2;P2;SDS_P1;SDS_P2;PMS_P1;PMS_P2;Temp;Humidity;BMP_temperature;BMP_pressure;BME280_temperature;BME280_humidity;BME280_pressure;Samples;Min_cycle;Max_cycle;Signal;HPM_P1;HPM_P2
2023/05/12 00:01:15;;;;;;;15.70;8.10;;;;;;;7.08;94.16;101598.87;106065;1256;65138;-85
2023/05/12 00:03:42;;;;;;;14.40;7.80;;;;;;;7.05;94.36;101598.58;105793;1254;73834;-85
2023/05/12 00:06:10;;;;;;;15.50;7.60;;;;;;;7.04;94.42;101602.62;105899;1254;62204;-83
2023/05/12 00:08:37;;;;;;;15.40;7.70;;;;;;;7.02;94.61;101599.18;106025;1252;61911;-85
2023/05/12 00:11:03;;;;;;;13.90;8.10;;;;;;;7.00;94.78;101603.27;105977;1255;75131;-88
2023/05/12 00:13:30;;;;;;;13.70;7.50;;;;;;;6.99;94.68;101600.52;105772;1256;64849;-85
2023/05/12 00:15:58;;;;;;;15.20;8.80;;;;;;;6.98;94.95;101602.98;105967;1255;73605;-84
2023/05/12 00:18:27;;;;;;;17.70;8.30;;;;;;;6.95;94.68;101602.02;105770;1256;60536;-85
2023/05/12 00:20:54;;;;;;;13.90;8.10;;;;;;;6.90;94.68;101604.95;105768;1256;61411;-87
2023/05/12 00:23:21;;;;;;;14.70;8.50;;;;;;;6.86;94.38;101606.96;105856;1252;74804;-84
2023/05/12 00:25:48;;;;;;;17.80;8.90;;;;;;;6.81;94.43;101607.43;105960;1256;63577;-84
2023/05/12 00:28:16;;;;;;;16.40;8.90;;;;;;;6.78;94.64;101610.14;105870;1254;73652;-86
2023/05/12 00:30:43;;;;;;;14.10;8.00;;;;;;;6.77;94.99;101608.61;105943;1254;62933;-84
2023/05/12 00:33:10;;;;;;;13.10;7.90;;;;;;;6.77;95.27;101608.60;105774;1256;60730;-84
2023/05/12 00:35:37;;;;;;;13.90;8.70;;;;;;;6.78;95.43;101611.52;105925;1253;74588;-85
2023/05/12 00:38:04;;;;;;;14.60;9.40;;;;;;;6.79;95.33;101615.14;106023;1254;64760;-84
2023/05/12 00:40:32;;;;;;;11.60;8.50;;;;;;;6.79;95.53;101614.45;106071;1254;73459;-82
2023/05/12 00:43:00;;;;;;;14.40;9.60;;;;;;;6.77;95.54;101615.20;106412;1257;61876;-83
2023/05/12 00:45:28;;;;;;;18.60;9.60;;;;;;;6.76;95.62;101613.16;105915;1256;61434;-81
2023/05/12 00:47:56;;;;;;;15.40;9.50;;;;;;;6.75;95.63;101615.42;105941;1254;75508;-85
2023/05/12 00:50:23;;;;;;;16.10;9.70;;;;;;;6.76;95.55;101613.33;106065;1256;63468;-82
2023/05/12 00:52:50;;;;;;;13.10;8.20;;;;;;;6.76;95.61;101614.02;107411;1252;73451;-83
2023/05/12 00:55:18;;;;;;;12.00;7.90;;;;;;;6.75;95.73;101612.84;107222;1255;61438;-83
2023/05/12 00:57:45;;;;;;;20.80;8.90;;;;;;;6.73;95.76;101613.77;106576;1255;60578;-84
2023/05/12 01:00:12;;;;;;;15.20;8.70;;;;;;;6.72;95.80;101614.85;106485;1254;73607;-82
2023/05/12 01:02:41;;;;;;;18.30;9.00;;;;;;;6.70;95.86;101617.66;106018;1256;64577;-84
2023/05/12 01:05:09;;;;;;;16.50;9.50;;;;;;;6.70;95.64;101618.02;106076;1256;73691;-83
2023/05/12 01:07:38;;;;;;;16.60;9.10;;;;;;;6.69;95.31;101619.42;105893;1257;61036;-85
2023/05/12 01:10:26;;;;;;;17.60;8.90;;;;;;;6.66;95.23;101619.34;105970;1254;61227;-86
2023/05/12 01:12:53;;;;;;;14.80;9.30;;;;;;;6.61;95.32;101620.00;105881;1254;74852;-84
2023/05/12 01:15:20;;;;;;;14.70;8.90;;;;;;;6.56;95.35;101619.27;106083;1254;64506;-85
2023/05/12 01:17:52;;;;;;;16.00;9.70;;;;;;;6.50;95.48;101623.10;105963;1257;73381;-84
2023/05/12 01:20:20;;;;;;;13.50;9.40;;;;;;;6.43;95.63;101623.95;105883;1254;61838;-83
2023/05/12 01:22:48;;;;;;;16.60;8.10;;;;;;;6.39;96.02;101623.71;105970;1254;61113;-83
2023/05/12 01:25:15;;;;;;;15.10;9.00;;;;;;;6.36;96.17;101623.27;105901;1256;73875;-83
2023/05/12 01:27:43;;;;;;;17.70;8.70;;;;;;;6.34;96.60;101630.97;106016;1261;65007;-84
2023/05/12 01:30:14;;;;;;;16.30;11.60;;;;;;;6.36;96.87;101630.56;106837;1256;73729;-86
2023/05/12 01:32:42;;;;;;;17.30;9.40;;;;;;;6.39;96.91;101629.62;106113;1256;61158;-85
2023/05/12 01:35:09;;;;;;;14.80;9.30;;;;;;;6.41;96.67;101626.45;105922;1254;61933;-85
2023/05/12 01:37:38;;;;;;;12.00;8.40;;;;;;;6.40;96.61;101624.72;105867;1255;75203;-85
2023/05/12 01:40:06;;;;;;;16.00;10.10;;;;;;;6.38;96.60;101627.38;106394;1257;63661;-86
2023/05/12 01:42:34;;;;;;;14.50;7.80;;;;;;;6.35;96.55;101629.73;105999;1254;72514;-83
2023/05/12 01:45:01;;;;;;;11.00;7.20;;;;;;;6.31;96.65;101626.88;106221;1254;63060;-86
2023/05/12 01:47:28;;;;;;;13.70;9.00;;;;;;;6.28;96.90;101623.84;105957;1254;61254;-84
2023/05/12 01:50:02;;;;;;;15.80;8.70;;;;;;;6.27;97.09;101626.80;105991;1254;73803;-83
2023/05/12 01:52:29;;;;;;;12.40;8.80;;;;;;;6.29;96.99;101621.91;105797;1253;65119;-84
2023/05/12 01:54:56;;;;;;;15.00;8.70;;;;;;;6.29;97.13;101625.03;105742;1258;73255;-85
2023/05/12 01:57:24;;;;;;;13.40;8.50;;;;;;;6.28;96.72;101622.45;105894;1254;60543;-85
2023/05/12 01:59:54;;;;;;;19.50;9.40;;;;;;;6.27;96.82;101621.09;105863;1256;60360;-84
2023/05/12 02:02:21;;;;;;;15.70;8.00;;;;;;;6.24;96.84;101619.42;105922;1256;73956;-85
2023/05/12 02:04:48;;;;;;;15.70;9.70;;;;;;;6.19;96.71;101619.20;105860;1256;64782;-86
2023/05/12 02:07:15;;;;;;;16.60;8.20;;;;;;;6.15;96.90;101619.46;105896;1254;73401;-86
2023/05/12 02:09:43;;;;;;;16.50;7.70;;;;;;;6.11;96.88;101623.75;106075;1256;61143;-88
2023/05/12 02:12:10;;;;;;;12.30;8.60;;;;;;;6.09;97.14;101622.59;106058;1256;60470;-84
2023/05/12 02:14:37;;;;;;;15.60;8.30;;;;;;;6.08;96.95;101618.77;106093;1256;74880;-84
2023/05/12 02:17:04;;;;;;;18.90;9.50;;;;;;;6.08;97.46;101622.59;105897;1254;63637;-83
2023/05/12 02:19:32;;;;;;;18.60;8.80;;;;;;;6.10;97.78;101620.48;105916;1254;73398;-83
2023/05/12 02:21:59;;;;;;;20.80;9.40;;;;;;;6.13;97.92;101619.00;106020;1254;60559;-86
2023/05/12 02:24:26;;;;;;;13.20;8.90;;;;;;;6.15;97.50;101623.46;105984;1252;62184;-85
2023/05/12 02:26:52;;;;;;;19.00;10.10;;;;;;;6.14;97.36;101621.77;105894;1257;73855;-87
2023/05/12 02:29:19;;;;;;;15.00;9.60;;;;;;;6.13;97.27;101625.60;105915;1259;63652;-84
2023/05/12 02:31:49;;;;;;;15.30;10.20;;;;;;;6.11;97.31;101622.00;105974;1257;73731;-83
2023/05/12 02:34:16;;;;;;;15.60;9.30;;;;;;;6.08;97.36;101621.74;108362;1252;62147;-84
2023/05/12 02:36:43;;;;;;;24.50;10.00;;;;;;;6.05;97.55;101623.72;108250;1256;60413;-83
2023/05/12 02:39:12;;;;;;;17.10;8.10;;;;;;;6.04;97.69;101624.44;106543;1257;73471;-87
2023/05/12 02:41:39;;;;;;;14.70;7.60;;;;;;;6.02;97.92;101623.62;106015;1256;63526;-84
2023/05/12 02:44:06;;;;;;;16.80;8.10;;;;;;;6.05;98.04;101625.10;105855;1259;72348;-85
2023/05/12 02:46:33;;;;;;;19.30;8.80;;;;;;;6.11;98.46;101630.67;105863;1257;61984;-86
2023/05/12 02:49:03;;;;;;;15.20;7.60;;;;;;;6.20;98.57;101626.11;106914;1259;60530;-83
2023/05/12 02:51:30;;;;;;;12.70;9.40;;;;;;;6.29;98.93;101629.03;108072;1257;74726;-84
2023/05/12 02:53:57;;;;;;;16.40;9.90;;;;;;;6.33;98.69;101632.73;106512;1256;63498;-84
2023/05/12 02:56:24;;;;;;;16.40;9.10;;;;;;;6.36;98.21;101630.23;106451;1254;73763;-84
2023/05/12 02:58:52;;;;;;;17.30;9.40;;;;;;;6.38;98.11;101631.21;105777;1261;61883;-88
2023/05/12 03:01:20;;;;;;;16.10;10.60;;;;;;;6.40;98.00;101633.39;105853;1254;61112;-88
2023/05/12 03:03:47;;;;;;;17.00;9.50;;;;;;;6.42;97.95;101634.94;106003;1257;74930;-86
2023/05/12 03:06:14;;;;;;;19.60;9.10;;;;;;;6.42;98.01;101638.40;106015;1253;63643;-86
2023/05/12 03:08:41;;;;;;;20.50;8.00;;;;;;;6.45;98.30;101638.66;105972;1258;73577;-87
2023/05/12 03:11:08;;;;;;;23.30;8.40;;;;;;;6.50;98.50;101637.31;105878;1256;61648;-86
2023/05/12 03:13:35;;;;;;;16.00;8.30;;;;;;;6.57;98.85;101642.19;105937;1254;61124;-83
2023/05/12 03:16:02;;;;;;;20.30;8.90;;;;;;;6.67;99.12;101646.25;105968;1255;74594;-85
2023/05/12 03:18:29;;;;;;;31.80;9.60;;;;;;;6.79;99.14;101649.73;105854;1257;65226;-86
2023/05/12 03:20:56;;;;;;;40.10;22.80;;;;;;;6.92;98.87;101650.61;105889;1257;73645;-89
2023/05/12 03:23:24;;;;;;;23.10;14.10;;;;;;;7.04;98.39;101655.12;105868;1256;61961;-88
2023/05/12 03:25:51;;;;;;;20.70;14.20;;;;;;;7.15;98.32;101652.52;105896;1254;60460;-85
2023/05/12 03:28:17;;;;;;;14.30;9.50;;;;;;;7.27;98.04;101655.16;105905;1258;73616;-88
2023/05/12 03:30:45;;;;;;;18.20;10.30;;;;;;;7.38;97.89;101656.23;105994;1257;65314;-87
2023/05/12 03:33:12;;;;;;;18.50;9.10;;;;;;;7.49;97.79;101655.55;106002;1254;72455;-87
2023/05/12 03:35:39;;;;;;;18.40;9.00;;;;;;;7.60;97.77;101657.46;105993;1252;60492;-86
2023/05/12 03:38:06;;;;;;;16.60;9.80;;;;;;;7.71;97.95;101656.09;106011;1258;60296;-87
2023/05/12 03:40:33;;;;;;;24.40;10.80;;;;;;;7.83;98.11;101659.20;106272;1256;74877;-84
2023/05/12 03:43:00;;;;;;;26.30;10.00;;;;;;;7.95;97.86;101658.27;106055;1256;64627;-85
2023/05/12 03:45:27;;;;;;;41.50;23.30;;;;;;;8.05;97.74;101655.15;105879;1257;72788;-86
2023/05/12 03:47:54;;;;;;;26.40;15.00;;;;;;;8.15;97.46;101656.23;105882;1258;60805;-86
2023/05/12 03:50:21;;;;;;;33.10;19.60;;;;;;;8.23;97.18;101655.80;105815;1252;61272;-85
2023/05/12 03:52:48;;;;;;;26.40;17.70;;;;;;;8.31;97.07;101657.45;105857;1254;73956;-85
2023/05/12 03:55:15;;;;;;;21.20;13.00;;;;;;;8.40;97.02;101657.86;105944;1266;64774;-84
2023/05/12 03:57:42;;;;;;;24.20;13.10;;;;;;;8.52;97.08;101655.21;105997;1256;74209;-85
2023/05/12 04:00:10;;;;;;;16.90;9.70;;;;;;;8.64;97.15;101657.72;106251;1256;61363;-86
2023/05/12 04:02:43;;;;;;;16.50;9.20;;;;;;;8.77;96.85;101659.02;106192;1254;60434;-85
2023/05/12 04:05:12;;;;;;;16.20;8.10;;;;;;;8.92;96.59;101661.44;106278;1252;74697;-84
2023/05/12 04:07:39;;;;;;;18.70;8.10;;;;;;;9.07;96.02;101656.01;106198;1257;64693;-83
2023/05/12 04:10:07;;;;;;;14.80;8.50;;;;;;;9.23;95.37;101653.84;105998;1256;73623;-85
2023/05/12 04:12:34;;;;;;;17.70;7.60;;;;;;;9.39;94.90;101657.09;105977;1257;60482;-85
2023/05/12 04:15:02;;;;;;;18.30;7.30;;;;;;;9.56;94.38;101656.41;105990;1257;61996;-84
2023/05/12 04:17:29;;;;;;;10.10;7.80;;;;;;;9.79;92.98;101654.65;106130;1258;74832;-84
2023/05/12 04:19:57;;;;;;;10.90;7.20;;;;;;;10.09;91.79;101652.71;106160;1257;64871;-85
2023/05/12 04:22:24;;;;;;;12.30;7.20;;;;;;;10.47;90.18;101651.52;106511;1265;74158;-85
2023/05/12 04:24:52;;;;;;;12.10;7.00;;;;;;;10.88;88.17;101656.55;106351;1256;60351;-84
2023/05/12 04:27:19;;;;;;;13.60;6.90;;;;;;;11.32;86.46;101658.73;107183;1253;60436;-85
2023/05/12 04:29:46;;;;;;;14.30;6.40;;;;;;;11.80;83.93;101656.98;106505;1254;73847;-84
2023/05/12 04:32:14;;;;;;;17.80;6.90;;;;;;;12.29;81.24;101659.66;106570;1258;64025;-83
2023/05/12 04:34:41;;;;;;;17.20;7.20;;;;;;;12.76;79.26;101661.32;106924;1256;72756;-84
2023/05/12 04:37:08;;;;;;;11.40;6.90;;;;;;;13.20;77.96;101657.93;107666;1254;60493;-82
2023/05/12 04:39:35;;;;;;;10.00;6.60;;;;;;;13.58;77.20;101660.10;107924;1254;60922;-84
2023/05/12 04:42:02;;;;;;;10.90;6.70;;;;;;;13.98;75.89;101654.29;106303;1257;74165;-83
2023/05/12 04:44:31;;;;;;;12.80;5.70;;;;;;;14.31;72.08;101657.67;106118;1256;63849;-83
2023/05/12 04:46:59;;;;;;;7.20;4.90;;;;;;;14.51;66.39;101655.91;106106;1255;72990;-84
2023/05/12 04:49:26;;;;;;;7.60;5.00;;;;;;;14.69;61.78;101660.33;105923;1255;60556;-85
2023/05/12 04:51:53;;;;;;;6.00;4.60;;;;;;;14.85;59.41;101664.11;106108;1252;60572;-84
2023/05/12 04:54:20;;;;;;;10.40;5.60;;;;;;;15.09;58.67;101661.04;105991;1263;74552;-86
2023/05/12 04:56:47;;;;;;;10.20;5.00;;;;;;;15.46;58.36;101659.96;106070;1256;64753;-86
2023/05/12 04:59:14;;;;;;;7.20;5.10;;;;;;;15.93;54.71;101659.97;106348;1257;73622;-85
2023/05/12 05:01:42;;;;;;;10.50;5.50;;;;;;;16.40;52.08;101658.20;105955;1266;61268;-86
2023/05/12 05:04:09;;;;;;;13.50;5.80;;;;;;;16.89;49.82;101662.48;105994;1254;60981;-84
2023/05/12 05:06:36;;;;;;;6.60;4.70;;;;;;;17.41;48.26;101660.70;105994;1251;74647;-84
2023/05/12 05:09:03;;;;;;;13.40;5.30;;;;;;;17.99;46.08;101661.98;106052;1256;64902;-85
2023/05/12 05:11:31;;;;;;;9.60;4.60;;;;;;;18.53;44.31;101661.60;105897;1256;72659;-87
2023/05/12 05:13:58;;;;;;;5.40;4.10;;;;;;;19.01;42.15;101662.87;106128;1257;60453;-86
2023/05/12 05:16:25;;;;;;;5.20;4.20;;;;;;;19.40;40.12;101669.36;106631;1252;60517;-83
2023/05/12 05:18:52;;;;;;;5.80;3.90;;;;;;;19.71;39.12;101665.04;107542;1256;74469;-85
2023/05/12 05:21:19;;;;;;;7.00;4.20;;;;;;;20.05;38.28;101666.16;108173;1256;65576;-84
2023/05/12 05:23:46;;;;;;;7.50;4.20;;;;;;;20.42;37.38;101662.86;106155;1256;72386;-87
2023/05/12 05:26:13;;;;;;;8.70;4.50;;;;;;;20.84;36.96;101665.55;106189;1256;61211;-86
2023/05/12 05:28:40;;;;;;;7.90;4.20;;;;;;;21.25;36.48;101666.59;106125;1252;61759;-87
2023/05/12 05:31:15;;;;;;;8.50;4.40;;;;;;;21.61;35.22;101667.43;106073;1257;75066;-86
2023/05/12 05:33:43;;;;;;;7.40;4.10;;;;;;;22.04;34.66;101668.91;106243;1257;64761;-88
2023/05/12 05:36:11;;;;;;;5.30;3.40;;;;;;;22.34;33.72;101670.41;106413;1254;72600;-86
2023/05/12 05:38:38;;;;;;;5.70;4.90;;;;;;;22.52;32.61;101669.11;106143;1254;60552;-87
2023/05/12 05:41:05;;;;;;;7.50;3.70;;;;;;;22.67;32.41;101672.36;106034;1256;60423;-84
2023/05/12 05:43:32;;;;;;;8.50;4.50;;;;;;;22.89;32.45;101675.59;106046;1256;74753;-88
2023/05/12 05:45:59;;;;;;;7.80;5.00;;;;;;;23.18;31.91;101675.31;106206;1257;64653;-87
2023/05/12 05:48:27;;;;;;;5.50;3.30;;;;;;;23.50;30.95;101673.98;107135;1257;73923;-83
2023/05/12 05:50:54;;;;;;;4.20;3.40;;;;;;;23.80;29.72;101673.41;107404;1255;61386;-84
2023/05/12 05:53:23;;;;;;;5.30;3.50;;;;;;;24.13;29.22;101672.06;106664;1252;61325;-86
2023/05/12 05:57:26;;;;;;;5.10;3.60;;;;;;;24.62;28.47;101669.61;102720;1294;601043;-87
2023/05/12 05:59:55;;;;;;;8.20;3.80;;;;;;;24.84;27.81;101671.90;105110;1264;61247;-86
2023/05/12 06:02:23;;;;;;;5.40;4.20;;;;;;;25.00;27.84;101674.91;105334;1263;62277;-87
2023/05/12 06:04:51;;;;;;;8.20;3.80;;;;;;;25.18;27.74;101674.54;105413;1264;73173;-88
2023/05/12 06:07:18;;;;;;;4.00;3.00;;;;;;;25.39;27.53;101671.75;105416;1263;66285;-89
2023/05/12 06:09:48;;;;;;;5.10;3.60;;;;;;;25.53;27.25;101670.63;105179;1279;74693;-87
2023/05/12 06:12:16;;;;;;;5.70;3.80;;;;;;;25.69;27.15;101672.11;104800;1260;60239;-86
2023/05/12 06:14:43;;;;;;;7.70;4.40;;;;;;;25.89;26.34;101671.81;105423;1267;59266;-87
2023/05/12 06:17:10;;;;;;;4.90;3.10;;;;;;;26.11;25.79;101667.60;105460;1266;74513;-87
2023/05/12 06:19:37;;;;;;;10.40;4.00;;;;;;;26.28;25.60;101663.21;105520;1264;66229;-87
2023/05/12 06:22:04;;;;;;;6.40;3.60;;;;;;;26.41;25.60;101657.73;106200;1256;73768;-84
2023/05/12 06:24:31;;;;;;;8.90;3.60;;;;;;;26.59;25.74;101657.82;106152;1256;60150;-89
2023/05/12 06:26:58;;;;;;;20.00;6.40;;;;;;;26.87;25.80;101662.68;106180;1251;61222;-85
2023/05/12 06:29:26;;;;;;;13.60;9.30;;;;;;;27.13;25.75;101660.88;106158;1251;74088;-86
2023/05/12 06:31:54;;;;;;;9.90;4.30;;;;;;;27.27;25.13;101662.67;106059;1251;65015;-88
2023/05/12 06:34:21;;;;;;;6.70;4.10;;;;;;;27.34;24.94;101661.94;106106;1253;73641;-85
2023/05/12 06:36:48;;;;;;;9.00;5.50;;;;;;;27.42;25.29;101665.13;106816;1251;62301;-85
2023/05/12 06:39:15;;;;;;;5.00;3.30;;;;;;;27.40;24.75;101666.92;106206;1251;61020;-89
2023/05/12 06:41:42;;;;;;;11.70;3.60;;;;;;;27.48;24.68;101662.59;105885;1251;74380;-86
2023/05/12 06:44:18;;;;;;;4.90;3.80;;;;;;;27.64;24.46;101665.28;105911;1251;65914;-84
2023/05/12 06:46:48;;;;;;;5.20;3.80;;;;;;;27.67;24.24;101665.90;106060;1251;74797;-86
2023/05/12 06:49:15;;;;;;;8.90;4.00;;;;;;;27.72;24.09;101668.13;105866;1256;61073;-87
2023/05/12 06:51:42;;;;;;;6.30;3.60;;;;;;;27.70;23.80;101666.66;106006;1256;62032;-86
2023/05/12 06:54:10;;;;;;;7.60;4.20;;;;;;;27.75;23.72;101671.34;106399;1251;75080;-87
2023/05/12 06:56:37;;;;;;;6.50;3.10;;;;;;;27.92;23.27;101669.72;106608;1257;65611;-85
2023/05/12 06:59:04;;;;;;;6.00;2.70;;;;;;;28.15;23.02;101665.08;106668;1251;73894;-87
2023/05/12 07:01:31;;;;;;;5.60;3.40;;;;;;;28.38;22.88;101664.42;106034;1257;61197;-86
2023/05/12 07:03:59;;;;;;;6.00;3.90;;;;;;;28.63;23.68;101665.56;105934;1255;61247;-86
2023/05/12 07:06:26;;;;;;;5.00;3.10;;;;;;;28.81;22.98;101666.52;105948;1256;74605;-85
2023/05/12 07:08:54;;;;;;;3.90;2.60;;;;;;;28.90;21.99;101665.02;105977;1256;65731;-89
2023/05/12 07:11:21;;;;;;;3.90;2.70;;;;;;;29.07;21.92;101666.02;106055;1255;73551;-90
2023/05/12 07:13:49;;;;;;;4.70;2.70;;;;;;;29.27;22.25;101664.80;106013;1257;62019;-88
2023/05/12 07:16:17;;;;;;;4.10;2.80;;;;;;;29.37;21.86;101666.28;106000;1251;62156;-87
2023/05/12 07:18:44;;;;;;;3.60;1.90;;;;;;;29.47;21.05;101664.09;106481;1251;75158;-85
2023/05/12 07:21:12;;;;;;;3.80;2.70;;;;;;;29.57;20.58;101663.49;107521;1251;64636;-86
2023/05/12 07:23:39;;;;;;;4.30;2.70;;;;;;;29.64;20.38;101659.30;108508;1251;73601;-84
2023/05/12 07:26:06;;;;;;;4.00;2.30;;;;;;;29.76;20.51;101659.23;109394;1253;61002;-84
2023/05/12 07:28:35;;;;;;;2.60;2.20;;;;;;;29.88;20.02;101663.59;107423;1252;61120;-85
2023/05/12 07:31:03;;;;;;;7.50;2.50;;;;;;;29.93;19.98;101657.64;106338;1257;75132;-86
2023/05/12 07:33:30;;;;;;;5.50;2.10;;;;;;;30.03;20.28;101660.21;106218;1251;65521;-85
2023/05/12 07:35:57;;;;;;;2.30;1.70;;;;;;;30.21;19.92;101660.85;106274;1251;74605;-87
2023/05/12 07:38:24;;;;;;;1.90;1.70;;;;;;;30.20;19.56;101659.73;106104;1251;62269;-88
2023/05/12 07:40:51;;;;;;;3.30;1.70;;;;;;;30.30;19.47;101658.40;105872;1251;62395;-86
2023/05/12 07:43:18;;;;;;;3.80;1.80;;;;;;;30.45;18.90;101660.27;106090;1251;74436;-87
2023/05/12 07:45:45;;;;;;;4.00;2.70;;;;;;;30.53;19.29;101653.11;106221;1251;65803;-88
2023/05/12 07:48:13;;;;;;;2.00;1.60;;;;;;;30.43;18.22;101650.91;106068;1257;74829;-88
2023/05/12 07:50:40;;;;;;;3.00;2.20;;;;;;;30.08;18.48;101649.23;106175;1251;62025;-83
2023/05/12 07:53:07;;;;;;;4.60;2.20;;;;;;;30.00;19.14;101651.73;106263;1251;60975;-89
2023/05/12 07:55:34;;;;;;;1.50;1.20;;;;;;;30.12;18.60;101649.47;106079;1251;74702;-88
2023/05/12 07:58:01;;;;;;;4.20;2.10;;;;;;;30.22;18.77;101643.92;107251;1251;65082;-87
2023/05/12 08:00:28;;;;;;;2.90;1.90;;;;;;;30.34;18.49;101643.02;106490;1251;73657;-87
2023/05/12 08:02:55;;;;;;;2.90;1.90;;;;;;;30.47;18.30;101639.73;106086;1256;61406;-88
2023/05/12 08:05:23;;;;;;;4.10;1.60;;;;;;;30.63;18.60;101640.53;106094;1254;61241;-88
2023/05/12 08:07:50;;;;;;;3.90;1.60;;;;;;;30.84;18.49;101635.70;106063;1258;73589;-87
2023/05/12 08:10:18;;;;;;;3.40;2.00;;;;;;;30.99;18.52;101634.61;106080;1257;64711;-86
2023/05/12 08:12:45;;;;;;;4.30;1.70;;;;;;;31.02;18.10;101633.41;106046;1257;73657;-86
2023/05/12 08:15:12;;;;;;;2.30;1.60;;;;;;;31.10;18.07;101629.64;106090;1253;61316;-87
2023/05/12 08:17:40;;;;;;;4.00;1.30;;;;;;;31.19;18.50;101628.55;106046;1251;62510;-86
2023/05/12 08:20:08;;;;;;;9.40;1.70;;;;;;;31.27;18.09;101630.98;106176;1251;76127;-87
2023/05/12 08:22:38;;;;;;;1.90;1.30;;;;;;;31.27;17.65;101630.83;106186;1251;65296;-90
2023/05/12 08:25:06;;;;;;;2.10;1.60;;;;;;;31.31;17.49;101632.08;106142;1254;73695;-86
2023/05/12 08:27:36;;;;;;;3.90;1.80;;;;;;;31.29;17.03;101628.88;105863;1257;60589;-86
2023/05/12 08:30:03;;;;;;;2.10;1.60;;;;;;;31.31;16.52;101624.11;105848;1253;62107;-87
2023/05/12 08:32:31;;;;;;;2.80;1.40;;;;;;;31.35;16.92;101615.62;105968;1251;75001;-90
2023/05/12 08:34:59;;;;;;;3.90;1.50;;;;;;;31.41;17.48;101613.93;105988;1251;66273;-88
2023/05/12 08:37:26;;;;;;;2.10;1.30;;;;;;;31.47;17.34;101614.75;105982;1254;73423;-87
2023/05/12 08:39:53;;;;;;;3.20;1.80;;;;;;;31.58;17.26;101612.77;105999;1254;62395;-87
2023/05/12 08:42:42;;;;;;;3.40;1.50;;;;;;;31.63;16.85;101616.23;105991;1251;61326;-87
2023/05/12 08:45:10;;;;;;;3.80;1.30;;;;;;;31.51;16.88;101614.34;106023;1252;73683;-90
2023/05/12 08:47:37;;;;;;;2.60;1.60;;;;;;;31.32;17.19;101618.31;105842;1251;66266;-88
2023/05/12 08:50:05;;;;;;;4.70;1.70;;;;;;;31.31;17.01;101612.48;106693;1253;73607;-86
2023/05/12 08:52:33;;;;;;;5.30;1.60;;;;;;;31.38;16.85;101606.98;106499;1254;61272;-90
2023/05/12 08:55:00;;;;;;;2.20;1.40;;;;;;;31.41;17.17;101608.63;105707;1258;61477;-87
2023/05/12 08:57:29;;;;;;;3.80;3.50;;;;;;;31.45;16.83;101603.36;105886;1251;73695;-90
2023/05/12 08:59:58;;;;;;;4.70;1.50;;;;;;;31.42;16.57;101602.09;105966;1255;65805;-90
2023/05/12 09:02:25;;;;;;;3.20;1.60;;;;;;;31.37;16.46;101599.95;105956;1254;73707;-88
2023/05/12 09:04:58;;;;;;;2.40;1.50;;;;;;;31.22;16.52;101598.75;106319;1253;62054;-86
2023/05/12 09:07:26;;;;;;;4.30;1.60;;;;;;;31.24;16.38;101603.13;106406;1251;61727;-87
2023/05/12 09:09:57;;;;;;;1.70;1.20;;;;;;;31.23;16.12;101598.40;106379;1251;73799;-87
2023/05/12 09:12:25;;;;;;;2.30;1.50;;;;;;;31.18;15.92;101600.20;106715;1256;65839;-85
2023/05/12 09:14:59;;;;;;;3.00;1.00;;;;;;;31.08;15.76;101599.16;106630;1257;74612;-89
2023/05/12 09:17:27;;;;;;;2.80;1.40;;;;;;;30.92;15.92;101592.37;106215;1252;61066;-86
2023/05/12 09:19:54;;;;;;;2.70;1.40;;;;;;;30.76;15.72;101586.23;106038;1251;62355;-87
2023/05/12 09:22:32;;;;;;;4.10;1.10;;;;;;;30.61;15.93;101584.91;106079;1253;75038;-87
2023/05/12 09:24:59;;;;;;;2.00;1.40;;;;;;;30.48;15.85;101583.70;106217;1256;65568;-89
2023/05/12 09:27:27;;;;;;;3.30;1.00;;;;;;;30.38;16.07;101579.38;106137;1258;74836;-87
2023/05/12 09:29:54;;;;;;;1.40;1.10;;;;;;;30.37;16.10;101578.89;106224;1253;61050;-86
2023/05/12 09:32:31;;;;;;;2.20;2.00;;;;;;;30.40;16.39;101573.80;107305;1255;60988;-89
2023/05/12 09:35:05;;;;;;;3.00;1.40;;;;;;;30.34;15.84;101573.11;107163;1251;74636;-84
2023/05/12 09:37:33;;;;;;;1.80;1.10;;;;;;;30.35;16.00;101571.54;106209;1254;64799;-87
2023/05/12 09:40:01;;;;;;;2.30;1.00;;;;;;;30.41;15.84;101568.37;105940;1256;74433;-86
2023/05/12 09:42:29;;;;;;;4.60;1.20;;;;;;;30.44;16.23;101562.46;106169;1251;61134;-86
2023/05/12 09:45:04;;;;;;;2.10;1.30;;;;;;;30.50;15.94;101562.54;106110;1251;62501;-87
2023/05/12 09:47:36;;;;;;;1.60;1.30;;;;;;;30.55;15.90;101567.23;106051;1252;75156;-86
2023/05/12 09:50:04;;;;;;;1.20;1.00;;;;;;;30.58;15.72;101566.16;105866;1251;64450;-88
2023/05/12 09:52:36;;;;;;;3.30;1.20;;;;;;;30.60;15.73;101565.49;105904;1256;74420;-88
2023/05/12 09:55:08;;;;;;;2.90;1.90;;;;;;;30.70;15.92;101560.42;105912;1254;61272;-87
2023/05/12 09:57:39;;;;;;;4.60;1.10;;;;;;;30.79;15.97;101558.16;105957;1256;61413;-88
2023/05/12 10:00:08;;;;;;;2.50;0.80;;;;;;;30.77;15.69;101553.48;106150;1253;75161;-86
2023/05/12 10:02:55;;;;;;;4.90;1.40;;;;;;;30.88;15.40;101549.16;105894;1252;65652;-88
2023/05/12 10:05:23;;;;;;;3.60;1.20;;;;;;;31.06;15.72;101549.55;105944;1253;73611;-88
2023/05/12 10:07:50;;;;;;;2.30;1.30;;;;;;;30.94;15.15;101548.48;105770;1255;62180;-89
2023/05/12 10:10:22;;;;;;;3.50;2.50;;;;;;;30.57;15.62;101551.95;106048;1251;61248;-90
2023/05/12 10:12:50;;;;;;;4.20;1.50;;;;;;;30.08;15.70;101548.29;106007;1251;75870;-87
2023/05/12 10:15:17;;;;;;;2.50;0.90;;;;;;;29.57;16.52;101546.51;105921;1256;65569;-88
2023/05/12 10:17:44;;;;;;;1.40;1.30;;;;;;;29.03;16.56;101545.52;106088;1251;75073;-86
2023/05/12 10:20:12;;;;;;;4.40;1.60;;;;;;;28.47;16.98;101545.20;106340;1252;61872;-87
2023/05/12 10:22:39;;;;;;;5.00;1.80;;;;;;;28.00;17.62;101542.34;106215;1257;60930;-87
2023/05/12 10:25:10;;;;;;;4.10;1.70;;;;;;;27.64;17.62;101540.02;107833;1251;75515;-86
2023/05/12 10:27:37;;;;;;;1.50;1.40;;;;;;;27.49;18.13;101539.25;108454;1251;64846;-86
2023/05/12 10:30:05;;;;;;;2.70;1.90;;;;;;;27.42;18.10;101533.45;106569;1253;73875;-85
2023/05/12 10:32:32;;;;;;;4.60;1.50;;;;;;;27.39;18.34;101535.40;106096;1257;61279;-87
2023/05/12 10:35:07;;;;;;;2.10;1.80;;;;;;;27.46;18.47;101536.53;106478;1251;62042;-90
2023/05/12 10:37:35;;;;;;;2.70;1.30;;;;;;;27.61;18.14;101532.30;106894;1251;75714;-88
2023/05/12 10:40:03;;;;;;;2.10;1.10;;;;;;;27.80;18.17;101528.23;106657;1251;64723;-90
2023/05/12 10:42:41;;;;;;;2.40;1.60;;;;;;;28.02;17.78;101532.11;106074;1252;74671;-89
2023/05/12 10:45:18;;;;;;;2.40;1.50;;;;;;;28.22;17.72;101524.46;106493;1257;61986;-86
2023/05/12 10:47:46;;;;;;;2.80;2.50;;;;;;;28.34;17.18;101526.55;106657;1251;62201;-88
2023/05/12 10:50:13;;;;;;;3.50;1.50;;;;;;;28.32;17.36;101525.56;106527;1255;75441;-89
2023/05/12 10:52:54;;;;;;;1.80;1.40;;;;;;;28.45;17.84;101522.89;106183;1255;65741;-90
2023/05/12 10:55:42;;;;;;;6.40;1.60;;;;;;;28.51;18.07;101524.02;105838;1258;74627;-90
2023/05/12 10:58:10;;;;;;;1.90;1.30;;;;;;;28.36;17.90;101519.48;105859;1255;62521;-89
2023/05/12 11:00:49;;;;;;;1.20;1.10;;;;;;;28.12;18.00;101516.29;106053;1251;61399;-87
2023/05/12 11:03:22;;;;;;;4.60;1.70;;;;;;;27.75;18.58;101519.65;106743;1252;75734;-88
2023/05/12 11:05:59;;;;;;;2.00;1.50;;;;;;;27.53;18.98;101513.65;106036;1257;64667;-87
2023/05/12 11:08:27;;;;;;;2.20;1.30;;;;;;;27.51;19.37;101509.73;105954;1257;74817;-85
2023/05/12 11:10:54;;;;;;;7.10;5.90;;;;;;;27.69;19.43;101509.59;106228;1251;63182;-90
2023/05/12 11:13:22;;;;;;;4.20;2.80;;;;;;;27.89;18.36;101506.24;106002;1251;61983;-87
2023/05/12 11:15:49;;;;;;;2.90;1.80;;;;;;;27.99;18.65;101502.98;106022;1257;74628;-89
2023/05/12 11:18:20;;;;;;;7.10;1.30;;;;;;;28.09;18.66;101498.81;106205;1257;64710;-90
2023/05/12 11:20:48;;;;;;;4.60;1.00;;;;;;;28.20;18.50;101500.84;106597;1256;74641;-86
2023/05/12 11:23:27;;;;;;;2.80;0.90;;;;;;;28.26;17.31;101496.77;107190;1251;62478;-85